Time;durP1;ratioP1;P1;durP2;ratioP2;P2;SDS_P1;SDS_P2;PMS_P1;PMS_P2;Temp;Humidity;BMP_temperature;BMP_pressure;BME280_temperature;BME280_humidity;BME280_pressure;Samples;Min_cycle;Max_cycle;Signal;HPM_P1;HPM_P2
2021/10/31 00:01:46;;;;;;;32.88;18.62;;;;;;;8.80;66.77;100627.23;1692864;81;27571;-81
2021/10/31 00:04:13;;;;;;;34.03;19.92;;;;;;;8.80;66.77;100619.72;1721631;81;25574;-82
2021/10/31 00:06:40;;;;;;;31.30;18.37;;;;;;;8.78;66.85;100614.56;1751728;81;25825;-82
2021/10/31 00:09:07;;;;;;;31.42;18.77;;;;;;;8.77;66.76;100624.09;1677958;81;25764;-82
2021/10/31 00:11:35;;;;;;;35.38;18.48;;;;;;;8.75;66.74;100620.73;1702232;81;25907;-81
2021/10/31 00:14:03;;;;;;;34.67;19.17;;;;;;;8.73;66.70;100627.59;1727831;81;28140;-81
2021/10/31 00:16:30;;;;;;;32.00;19.42;;;;;;;8.71;66.76;100628.77;1747364;81;25967;-81
2021/10/31 00:18:57;;;;;;;32.20;19.40;;;;;;;8.69;66.71;100632.12;1701109;81;25862;-81
2021/10/31 00:21:26;;;;;;;34.95;18.15;;;;;;;8.67;66.80;100630.13;1689624;81;26841;-82
2021/10/31 00:23:54;;;;;;;35.38;18.80;;;;;;;8.65;66.78;100623.63;1728577;81;26521;-81
2021/10/31 00:26:22;;;;;;;34.00;19.52;;;;;;;8.62;66.76;100631.17;1742590;81;27452;-82
2021/10/31 00:28:49;;;;;;;30.50;19.02;;;;;;;8.60;66.88;100633.18;1675549;83;25822;-81
2021/10/31 00:31:17;;;;;;;35.30;19.52;;;;;;;8.57;66.93;100633.02;1725883;81;25868;-82
2021/10/31 00:33:44;;;;;;;31.35;18.95;;;;;;;8.57;66.94;100630.84;1717492;81;26594;-81
2021/10/31 00:36:11;;;;;;;33.25;19.02;;;;;;;8.54;66.98;100620.84;1723266;82;26303;-80
2021/10/31 00:38:38;;;;;;;29.42;17.82;;;;;;;8.52;66.95;100626.02;1678860;81;27385;-82
2021/10/31 00:41:05;;;;;;;32.15;18.87;;;;;;;8.51;67.05;100625.18;1693542;81;25807;-82
2021/10/31 00:43:32;;;;;;;33.80;19.70;;;;;;;8.47;66.92;100615.86;1721575;82;25983;-81
2021/10/31 00:45:59;;;;;;;31.97;18.90;;;;;;;8.42;66.97;100623.56;1704014;82;26572;-83
2021/10/31 00:48:26;;;;;;;31.93;18.15;;;;;;;8.38;67.02;100624.89;1703185;81;25997;-81
2021/10/31 00:50:53;;;;;;;35.78;18.10;;;;;;;8.35;67.06;100629.75;1699319;81;27980;-82
2021/10/31 00:53:21;;;;;;;30.92;18.80;;;;;;;8.32;67.13;100633.59;1727739;82;25380;-82
2021/10/31 00:55:48;;;;;;;31.00;18.75;;;;;;;8.30;67.22;100631.59;1702698;81;26643;-81
2021/10/31 00:58:15;;;;;;;32.55;18.90;;;;;;;8.27;67.36;100620.44;1687684;81;25869;-81
2021/10/31 01:00:42;;;;;;;32.78;18.87;;;;;;;8.23;67.40;100618.56;1700817;82;25879;-82
2021/10/31 01:03:09;;;;;;;39.73;22.70;;;;;;;8.23;67.47;100636.44;1744578;81;27595;-82
2021/10/31 01:05:52;;;;;;;34.58;19.62;;;;;;;8.19;67.54;100631.92;1677844;82;25981;-82
2021/10/31 01:08:49;;;;;;;29.27;18.15;;;;;;;8.18;67.58;100626.27;1728916;82;25776;-82
2021/10/31 01:11:57;;;;;;;32.83;18.73;;;;;;;8.17;67.70;100620.59;1684646;82;25870;-82
2021/10/31 01:14:46;;;;;;;32.60;18.62;;;;;;;8.11;67.80;100624.44;1737531;82;26390;-82
2021/10/31 01:17:27;;;;;;;29.27;18.05;;;;;;;8.04;67.91;100623.47;1704510;83;27585;-82
2021/10/31 01:20:15;;;;;;;;;;;;;;;7.99;67.95;100627.98;1732379;82;26086;-82
2021/10/31 01:23:08;;;;;;;29.55;17.65;;;;;;;7.97;68.09;100619.80;1730795;82;25778;-81
2021/10/31 01:26:05;;;;;;;30.52;17.42;;;;;;;7.93;68.17;100615.32;1708726;82;26570;-81
2021/10/31 01:29:13;;;;;;;34.03;19.05;;;;;;;7.90;68.25;100620.14;1712838;82;26086;-82
2021/10/31 01:32:25;;;;;;;37.98;18.45;;;;;;;7.87;68.23;100614.64;1692217;81;28248;-82
2021/10/31 01:35:22;;;;;;;32.28;17.48;;;;;;;7.82;68.30;100611.66;1642554;87;26033;-81
2021/10/31 01:38:13;;;;;;;30.80;18.12;;;;;;;7.79;68.32;100606.16;1721719;82;25877;-81
2021/10/31 01:40:54;;;;;;;31.25;17.62;;;;;;;7.73;68.29;100610.84;1696954;82;25857;-81
2021/10/31 01:43:51;;;;;;;29.02;17.57;;;;;;;7.70;68.44;100616.99;1680298;82;25721;-81
2021/10/31 01:46:35;;;;;;;32.42;19.42;;;;;;;7.67;68.51;100615.52;1704233;82;27471;-82
2021/10/31 01:49:19;;;;;;;35.63;18.73;;;;;;;7.64;68.55;100617.17;1680796;82;26883;-82
2021/10/31 01:52:03;;;;;;;33.98;17.67;;;;;;;7.60;68.64;100617.67;1703640;82;25923;-81
2021/10/31 01:54:38;;;;;;;28.30;16.73;;;;;;;7.58;68.73;100615.67;1705268;82;25867;-81
2021/10/31 01:57:11;;;;;;;31.25;18.67;;;;;;;7.56;68.75;100617.19;1724682;82;25309;-82
2021/10/31 01:59:44;;;;;;;32.35;17.73;;;;;;;7.56;68.88;100619.84;1733990;82;27476;-82
2021/10/31 02:02:14;;;;;;;30.60;17.62;;;;;;;7.54;68.81;100614.34;1722716;81;25897;-82
2021/10/31 02:04:45;;;;;;;34.98;19.67;;;;;;;7.49;68.85;100613.51;1726224;81;25853;-81
2021/10/31 02:07:13;;;;;;;30.55;18.30;;;;;;;7.47;68.88;100614.17;1748024;81;26514;-82
2021/10/31 02:09:42;;;;;;;28.12;17.25;;;;;;;7.44;68.90;100607.84;1745099;81;25909;-82
2021/10/31 02:12:16;;;;;;;29.87;17.52;;;;;;;7.41;68.88;100618.00;1681266;82;27619;-81
2021/10/31 02:14:43;;;;;;;30.35;18.12;;;;;;;7.36;68.74;100618.98;1694534;81;25930;-81
2021/10/31 02:17:11;;;;;;;29.67;18.02;;;;;;;7.30;68.80;100618.32;1752285;81;25760;-81
2021/10/31 02:19:42;;;;;;;31.65;18.37;;;;;;;7.27;68.98;100614.16;1748191;81;25934;-81
2021/10/31 02:22:20;;;;;;;31.48;17.48;;;;;;;7.28;69.06;100618.50;1642819;81;25814;-82
2021/10/31 02:24:47;;;;;;;31.30;18.17;;;;;;;7.29;69.15;100618.01;1678661;81;27522;-81
2021/10/31 02:27:18;;;;;;;31.02;17.80;;;;;;;7.28;69.23;100625.16;1738014;81;25868;-82
2021/10/31 02:29:52;;;;;;;30.55;17.42;;;;;;;7.26;69.16;100617.83;1751923;81;25320;-81
2021/10/31 02:32:23;;;;;;;27.80;17.20;;;;;;;7.27;69.22;100616.01;1700428;81;26650;-81
2021/10/31 02:34:50;;;;;;;;;;;;;;;7.28;69.28;100622.98;1706615;81;25828;-81
2021/10/31 02:37:17;;;;;;;26.52;16.67;;;;;;;7.25;69.33;100620.15;1747583;81;27613;-82
2021/10/31 02:39:44;;;;;;;28.07;17.00;;;;;;;7.24;69.33;100622.98;1697787;81;26131;-81
2021/10/31 02:42:12;;;;;;;34.18;17.35;;;;;;;7.22;69.25;100624.48;1727806;81;25733;-82
2021/10/31 02:44:41;;;;;;;29.72;17.17;;;;;;;7.18;69.26;100627.64;1686037;81;25826;-81
2021/10/31 02:47:12;;;;;;;31.17;18.30;;;;;;;7.16;69.33;100628.31;1744378;81;25641;-82
2021/10/31 02:49:40;;;;;;;30.72;18.27;;;;;;;7.10;69.28;100630.30;1700588;81;28197;-81
2021/10/31 02:52:44;;;;;;;33.30;18.17;;;;;;;7.03;69.12;100629.59;1680375;82;26088;-82
2021/10/31 02:55:49;;;;;;;34.67;19.17;;;;;;;6.96;69.05;100627.77;1726093;81;25794;-81
2021/10/31 02:58:50;;;;;;;32.33;17.87;;;;;;;6.86;69.05;100625.22;1744656;81;26487;-82
2021/10/31 03:01:18;;;;;;;31.15;19.55;;;;;;;6.81;69.22;100630.22;1722656;81;25902;-82
2021/10/31 03:03:46;;;;;;;32.88;19.48;;;;;;;6.73;69.32;100632.87;1727236;81;28227;-81
2021/10/31 03:06:17;;;;;;;33.67;20.35;;;;;;;6.69;69.44;100631.49;1703265;81;25766;-82
2021/10/31 03:08:44;;;;;;;31.10;18.92;;;;;;;6.65;69.56;100632.00;1749329;81;25832;-81
2021/10/31 03:11:11;;;;;;;35.28;20.37;;;;;;;6.61;69.68;100631.47;1724611;81;25846;-81
2021/10/31 03:13:39;;;;;;;33.98;20.12;;;;;;;6.58;69.84;100637.13;1683570;81;25861;-81
2021/10/31 03:16:07;;;;;;;34.88;21.23;;;;;;;6.53;70.08;100640.76;1724438;81;27535;-81
2021/10/31 03:18:36;;;;;;;37.28;23.52;;;;;;;6.51;70.15;100640.58;1712402;83;25843;-82
2021/10/31 03:21:04;;;;;;;33.65;21.60;;;;;;;6.48;70.22;100637.73;1716325;81;25823;-82
2021/10/31 03:23:31;;;;;;;34.48;21.80;;;;;;;6.47;70.27;100645.88;1703696;81;26529;-82
2021/10/31 03:25:58;;;;;;;35.17;22.42;;;;;;;6.47;70.40;100638.74;1693919;81;25360;-81
2021/10/31 03:28:25;;;;;;;41.53;23.20;;;;;;;6.45;70.41;100651.38;1748773;81;28152;-81
2021/10/31 03:30:52;;;;;;;35.17;21.57;;;;;;;6.43;70.40;100653.36;1648718;83;25878;-82
2021/10/31 03:33:19;;;;;;;33.25;19.82;;;;;;;6.42;70.35;100650.83;1696999;81;25857;-82
2021/10/31 03:35:46;;;;;;;34.48;19.87;;;;;;;6.39;70.26;100657.82;1694433;81;25853;-81
2021/10/31 03:38:13;;;;;;;34.83;20.92;;;;;;;6.35;70.17;100655.95;1727119;81;25920;-82
2021/10/31 03:40:40;;;;;;;30.52;20.12;;;;;;;6.31;70.30;100661.25;1673952;83;28256;-82
2021/10/31 03:43:07;;;;;;;30.77;18.95;;;;;;;6.29;70.34;100662.43;1664261;83;25986;-81
2021/10/31 03:45:35;;;;;;;33.02;20.12;;;;;;;6.26;70.35;100672.88;1701475;82;25900;-81
2021/10/31 03:48:03;;;;;;;33.73;20.37;;;;;;;6.22;70.66;100663.03;1751318;81;25860;-82
2021/10/31 03:50:31;;;;;;;33.08;20.30;;;;;;;6.20;70.61;100666.87;1694014;81;25346;-81
2021/10/31 03:52:58;;;;;;;33.53;20.97;;;;;;;6.17;70.58;100667.17;1722363;81;27540;-81
2021/10/31 03:58:00;;;;;;;34.18;20.70;;;;;;;6.17;70.90;100663.18;1838302;76;25609;-81
2021/10/31 04:00:27;;;;;;;37.35;20.95;;;;;;;6.13;70.98;100667.15;1804198;78;25900;-81
2021/10/31 04:02:54;;;;;;;39.90;20.17;;;;;;;6.12;71.05;100668.97;1786395;78;27638;-81
2021/10/31 04:05:21;;;;;;;32.28;20.27;;;;;;;6.08;71.15;100670.76;1782136;78;26013;-81
2021/10/31 04:07:48;;;;;;;38.50;20.37;;;;;;;6.04;71.22;100671.58;1774039;77;25756;-81
2021/10/31 04:10:15;;;;;;;34.23;20.68;;;;;;;6.04;71.25;100672.06;1761049;77;26380;-81
2021/10/31 04:12:42;;;;;;;34.40;21.00;;;;;;;6.01;71.29;100671.03;1815639;77;25854;-81
2021/10/31 04:15:10;;;;;;;38.83;20.65;;;;;;;5.97;71.49;100677.66;1810833;77;27207;-81
2021/10/31 04:17:37;;;;;;;32.88;21.12;;;;;;;5.93;71.78;100685.12;1728720;78;26237;-81
2021/10/31 04:20:06;;;;;;;34.58;21.62;;;;;;;5.88;71.90;100687.39;1775551;77;25776;-81
2021/10/31 04:22:34;;;;;;;33.80;20.20;;;;;;;5.87;72.05;100695.05;1812766;77;25944;-81
2021/10/31 04:25:03;;;;;;;35.80;21.00;;;;;;;5.86;72.03;100692.03;1780165;79;25829;-81
2021/10/31 04:27:30;;;;;;;36.70;20.48;;;;;;;5.84;71.94;100689.18;1783517;77;26953;-81
2021/10/31 04:29:57;;;;;;;37.10;19.70;;;;;;;5.83;71.91;100690.16;1759399;77;25818;-81
2021/10/31 04:32:25;;;;;;;29.42;19.20;;;;;;;5.82;71.85;100697.28;1749133;79;25896;-81
2021/10/31 04:34:52;;;;;;;33.08;20.27;;;;;;;5.82;71.84;100690.64;1785405;77;26012;-81
2021/10/31 04:37:19;;;;;;;35.45;21.35;;;;;;;5.83;71.89;100691.00;1738642;79;25991;-81
2021/10/31 04:39:48;;;;;;;35.58;21.85;;;;;;;5.85;71.96;100692.20;1806405;77;27441;-81
2021/10/31 04:42:15;;;;;;;38.33;22.90;;;;;;;5.84;71.99;100695.83;1812955;77;25722;-82
2021/10/31 04:44:42;;;;;;;35.15;21.25;;;;;;;5.85;72.26;100698.84;1783522;79;25851;-81
2021/10/31 04:47:09;;;;;;;34.83;20.10;;;;;;;5.83;72.43;100699.45;1731414;78;25863;-81
2021/10/31 04:49:36;;;;;;;37.53;21.27;;;;;;;5.82;72.58;100694.63;1772089;77;25872;-80
2021/10/31 04:52:05;;;;;;;33.48;20.45;;;;;;;5.82;72.62;100695.11;1803678;77;28317;-81
2021/10/31 04:54:32;;;;;;;33.15;20.10;;;;;;;5.80;72.46;100690.45;1763085;79;25956;-81
2021/10/31 04:56:59;;;;;;;34.40;21.45;;;;;;;5.80;72.43;100689.12;1726165;79;26745;-81
2021/10/31 04:59:26;;;;;;;33.78;20.77;;;;;;;5.79;72.39;100687.47;1808177;77;26387;-81
2021/10/31 05:01:53;;;;;;;40.50;21.37;;;;;;;5.78;72.40;100690.61;1794226;78;25824;-81
2021/10/31 05:04:21;;;;;;;35.23;20.08;;;;;;;5.77;72.40;100680.98;1800350;77;27553;-82
2021/10/31 05:06:48;;;;;;;36.30;19.85;;;;;;;5.76;72.55;100681.95;1744310;77;25918;-81
2021/10/31 05:09:15;;;;;;;32.73;19.12;;;;;;;5.77;72.68;100678.33;1698315;80;25847;-81
2021/10/31 05:11:43;;;;;;;32.45;19.20;;;;;;;5.80;73.02;100673.17;1717929;80;25365;-81
2021/10/31 05:14:10;;;;;;;29.12;17.45;;;;;;;5.81;73.24;100670.87;1692328;80;25917;-80
2021/10/31 05:16:38;;;;;;;33.75;17.45;;;;;;;5.81;73.28;100666.39;1682720;81;27598;-81
2021/10/31 05:19:13;;;;;;;30.80;18.40;;;;;;;5.83;73.65;100675.05;1738967;80;25827;-81
2021/10/31 05:21:36;;;;;;;27.20;16.67;;;;;;;5.83;73.68;100677.70;1743862;80;25339;-81
2021/10/31 05:24:04;;;;;;;41.77;24.07;;;;;;;5.84;73.61;100679.88;1765137;79;26602;-81
2021/10/31 05:26:31;;;;;;;31.82;18.70;;;;;;;5.83;73.78;100673.72;1710005;82;25955;-82
2021/10/31 05:28:58;;;;;;;30.60;18.25;;;;;;;5.84;73.80;100675.89;1700717;80;27639;-80
2021/10/31 05:31:25;;;;;;;29.80;17.50;;;;;;;5.85;73.83;100675.76;1740459;80;25761;-82
2021/10/31 05:33:52;;;;;;;32.15;17.90;;;;;;;5.88;73.66;100680.75;1755876;79;26701;-81
2021/10/31 05:36:20;;;;;;;34.98;22.75;;;;;;;5.90;73.58;100690.73;1715940;82;25780;-81
2021/10/31 05:38:49;;;;;;;34.65;20.88;;;;;;;5.92;73.54;100690.08;1737946;79;25754;-81
2021/10/31 05:41:17;;;;;;;33.33;19.00;;;;;;;5.91;73.20;100688.91;1772828;79;27457;-81
2021/10/31 05:43:44;;;;;;;28.85;16.93;;;;;;;5.91;73.48;100691.09;1799884;79;25798;-81
2021/10/31 05:46:11;;;;;;;30.65;18.07;;;;;;;5.93;73.51;100693.58;1693636;80;26709;-81
2021/10/31 05:48:39;;;;;;;29.05;17.50;;;;;;;5.94;73.52;100692.61;1715131;80;25971;-81
2021/10/31 05:51:06;;;;;;;32.53;18.30;;;;;;;5.95;73.57;100695.59;1777107;79;26545;-81
2021/10/31 05:53:33;;;;;;;30.20;17.40;;;;;;;5.94;73.59;100700.09;1744181;80;27431;-82
2021/10/31 05:56:00;;;;;;;30.97;18.37;;;;;;;5.94;73.53;100709.40;1741390;80;25802;-81
2021/10/31 05:58:27;;;;;;;30.30;17.62;;;;;;;5.93;73.50;100703.73;1726250;81;25811;-81
2021/10/31 06:00:54;;;;;;;31.55;17.77;;;;;;;5.94;73.46;100699.25;1759085;80;25973;-81
2021/10/31 06:03:23;;;;;;;32.13;18.12;;;;;;;5.94;73.44;100697.92;1723780;81;25821;-81
2021/10/31 06:05:50;;;;;;;29.92;17.07;;;;;;;5.94;73.45;100697.44;1698954;82;27684;-81
2021/10/31 06:08:17;;;;;;;29.40;17.32;;;;;;;5.95;73.56;100700.91;1730188;82;25920;-81
2021/10/31 06:10:45;;;;;;;28.98;18.35;;;;;;;5.96;73.65;100703.43;1725374;81;25796;-82
2021/10/31 06:13:12;;;;;;;31.80;17.75;;;;;;;5.98;73.66;100703.27;1725696;80;26105;-81
2021/10/31 06:15:41;;;;;;;27.15;17.10;;;;;;;6.00;73.92;100703.45;1705017;80;26037;-81
2021/10/31 06:18:08;;;;;;;27.87;18.17;;;;;;;6.00;74.13;100699.95;1726628;81;27632;-80
2021/10/31 06:20:36;;;;;;;30.27;17.12;;;;;;;5.98;74.33;100698.79;1748853;81;25924;-81
2021/10/31 06:23:03;;;;;;;33.18;18.40;;;;;;;6.00;74.49;100705.27;1730012;80;25823;-81
2021/10/31 06:25:30;;;;;;;29.63;17.10;;;;;;;6.03;74.76;100710.30;1676597;80;25838;-81
2021/10/31 06:27:57;;;;;;;31.12;17.40;;;;;;;6.07;74.76;100715.13;1709731;82;25784;-81
2021/10/31 06:30:24;;;;;;;26.95;15.13;;;;;;;6.13;75.01;100711.87;1721443;81;27634;-81
2021/10/31 06:32:52;;;;;;;25.25;16.73;;;;;;;6.19;75.20;100715.23;1722684;81;25864;-81
2021/10/31 06:35:19;;;;;;;28.80;15.75;;;;;;;6.26;75.42;100710.61;1697980;82;25909;-81
2021/10/31 06:37:48;;;;;;;27.60;16.35;;;;;;;6.32;75.38;100713.48;1729428;80;25903;-81
2021/10/31 06:40:15;;;;;;;28.55;15.85;;;;;;;6.41;75.77;100714.37;1760435;80;25953;-80
2021/10/31 06:42:42;;;;;;;28.10;16.87;;;;;;;6.48;75.95;100714.89;1719227;81;27577;-81
2021/10/31 06:45:10;;;;;;;26.48;17.50;;;;;;;6.56;76.06;100712.30;1671269;82;26025;-81
2021/10/31 06:47:37;;;;;;;27.20;17.75;;;;;;;6.66;76.22;100713.50;1701935;82;25726;-81
2021/10/31 06:50:06;;;;;;;27.55;17.42;;;;;;;6.75;76.26;100714.73;1728887;82;26570;-81
2021/10/31 06:52:33;;;;;;;30.75;17.48;;;;;;;6.85;76.43;100707.44;1703779;82;25555;-81
2021/10/31 06:55:00;;;;;;;26.20;16.55;;;;;;;6.94;76.35;100707.82;1694419;81;27565;-82
2021/10/31 06:57:27;;;;;;;28.32;16.87;;;;;;;7.06;76.32;100718.19;1661570;83;26562;-81
2021/10/31 06:59:54;;;;;;;25.70;15.38;;;;;;;7.15;76.40;100715.37;1749617;81;25817;-81
2021/10/31 07:02:21;;;;;;;28.98;15.83;;;;;;;7.26;76.35;100717.73;1739637;80;25839;-81
2021/10/31 07:04:48;;;;;;;22.25;14.18;;;;;;;7.37;76.34;100720.59;1745742;80;25841;-81
2021/10/31 07:07:15;;;;;;;26.40;15.35;;;;;;;7.46;76.18;100725.77;1720420;81;27625;-81
2021/10/31 07:09:42;;;;;;;25.35;14.93;;;;;;;7.55;76.05;100723.45;1741889;79;26059;-81
2021/10/31 07:12:09;;;;;;;28.52;16.02;;;;;;;7.65;75.97;100724.65;1794428;78;25916;-81
2021/10/31 07:14:36;;;;;;;24.75;15.43;;;;;;;7.73;75.91;100724.16;1711379;78;26461;-81
2021/10/31 07:17:04;;;;;;;22.15;15.25;;;;;;;7.82;75.88;100725.00;1746918;78;25865;-81
2021/10/31 07:19:31;;;;;;;24.55;14.30;;;;;;;7.91;75.73;100720.01;1758127;78;27505;-82
2021/10/31 07:21:58;;;;;;;27.50;15.60;;;;;;;8.00;75.66;100718.98;1747112;80;25788;-81
2021/10/31 07:24:25;;;;;;;22.22;14.05;;;;;;;8.09;75.49;100715.32;1710145;80;25861;-81
2021/10/31 07:26:52;;;;;;;23.25;15.13;;;;;;;8.19;75.38;100725.83;1711678;81;25367;-82
2021/10/31 07:29:19;;;;;;;22.75;13.65;;;;;;;8.27;75.28;100730.69;1740525;79;25937;-81
2021/10/31 07:31:49;;;;;;;24.18;14.73;;;;;;;8.36;75.13;100724.31;1733161;80;27441;-81
2021/10/31 07:34:16;;;;;;;26.65;14.78;;;;;;;8.45;75.08;100725.13;1722983;81;26322;-81
2021/10/31 07:36:44;;;;;;;26.90;15.23;;;;;;;8.56;74.83;100723.45;1766886;80;25354;-80
2021/10/31 07:39:12;;;;;;;28.90;16.57;;;;;;;8.67;74.59;100734.27;1772033;78;25845;-82
2021/10/31 07:41:39;;;;;;;23.50;15.23;;;;;;;8.75;74.39;100728.89;1761663;78;25956;-81
2021/10/31 07:44:08;;;;;;;23.83;13.53;;;;;;;8.85;74.26;100727.72;1708619;81;27655;-81
2021/10/31 07:46:35;;;;;;;21.87;14.60;;;;;;;8.95;74.12;100731.51;1761177;79;26013;-81
2021/10/31 07:49:04;;;;;;;22.25;14.63;;;;;;;9.04;73.93;100725.97;1728997;81;26101;-81
2021/10/31 07:51:31;;;;;;;23.47;14.45;;;;;;;9.12;73.79;100728.59;1694403;81;25986;-81
2021/10/31 07:53:58;;;;;;;24.40;14.73;;;;;;;9.20;73.80;100727.22;1738652;81;25802;-80
2021/10/31 07:56:27;;;;;;;24.05;15.65;;;;;;;9.29;73.47;100725.33;1765497;79;27487;-81
2021/10/31 07:58:56;;;;;;;22.32;14.58;;;;;;;9.38;73.34;100731.47;1752417;79;26091;-81
2021/10/31 08:01:24;;;;;;;23.77;14.35;;;;;;;9.47;73.17;100733.94;1723768;80;25382;-81
2021/10/31 08:03:53;;;;;;;24.07;15.60;;;;;;;9.56;73.15;100732.05;1684805;82;26489;-81
2021/10/31 08:06:22;;;;;;;21.82;14.43;;;;;;;9.66;72.93;100733.48;1750921;80;25578;-82
2021/10/31 08:08:49;;;;;;;20.77;13.80;;;;;;;9.77;72.82;100741.59;1732430;81;27457;-81
2021/10/31 08:11:17;;;;;;;24.05;14.55;;;;;;;9.85;72.53;100737.02;1683196;82;25834;-81
2021/10/31 08:13:45;;;;;;;22.80;14.45;;;;;;;9.94;72.28;100743.14;1673669;81;25823;-81
2021/10/31 08:16:12;;;;;;;22.70;14.35;;;;;;;10.03;72.30;100745.55;1744656;81;25846;-81
2021/10/31 08:18:39;;;;;;;23.22;12.93;;;;;;;10.16;72.16;100744.17;1748561;81;25966;-81
2021/10/31 08:21:06;;;;;;;26.37;14.15;;;;;;;10.24;71.65;100739.58;1688084;81;28756;-82
2021/10/31 08:23:33;;;;;;;20.02;12.78;;;;;;;10.35;71.56;100743.13;1705411;81;25863;-81
2021/10/31 08:26:01;;;;;;;22.98;15.23;;;;;;;10.44;71.48;100735.34;1746725;81;25925;-82
2021/10/31 08:28:28;;;;;;;24.23;14.47;;;;;;;10.55;71.30;100742.10;1748791;79;25790;-81
2021/10/31 08:30:57;;;;;;;21.68;13.70;;;;;;;10.66;70.98;100736.30;1728796;82;25878;-82
2021/10/31 08:33:30;;;;;;;22.60;14.63;;;;;;;10.76;70.74;100731.48;1699660;81;28085;-82
2021/10/31 08:35:55;;;;;;;21.30;13.48;;;;;;;10.85;70.40;100741.11;1757379;80;25880;-82
2021/10/31 08:38:22;;;;;;;25.05;14.20;;;;;;;10.96;70.31;100741.15;1721965;80;25948;-82
2021/10/31 08:40:52;;;;;;;22.87;14.18;;;;;;;11.04;69.77;100738.36;1703307;80;26062;-82
2021/10/31 08:43:19;;;;;;;22.90;13.88;;;;;;;11.12;69.63;100737.75;1684547;83;25836;-81
2021/10/31 08:45:47;;;;;;;18.80;13.00;;;;;;;11.22;69.37;100733.45;1747799;80;28129;-82
2021/10/31 08:48:16;;;;;;;22.82;13.50;;;;;;;11.31;69.41;100737.70;1751266;80;25760;-83
2021/10/31 08:50:44;;;;;;;21.90;13.25;;;;;;;11.40;69.20;100736.55;1665411;82;25929;-82
2021/10/31 08:53:12;;;;;;;20.88;13.80;;;;;;;11.48;68.98;100735.92;1694738;80;25882;-82
2021/10/31 08:55:40;;;;;;;25.45;14.85;;;;;;;11.57;68.80;100733.95;1743389;80;26347;-82
2021/10/31 08:58:09;;;;;;;22.52;12.68;;;;;;;11.65;67.83;100731.18;1725116;80;27592;-80
2021/10/31 09:00:38;;;;;;;18.20;12.75;;;;;;;11.73;68.34;100734.27;1676918;82;26885;-81
2021/10/31 09:03:05;;;;;;;20.27;13.32;;;;;;;11.81;67.98;100730.95;1719653;80;25922;-81
2021/10/31 09:05:34;;;;;;;23.18;14.25;;;;;;;11.87;67.89;100734.73;1747083;80;26450;-82
2021/10/31 09:08:02;;;;;;;22.52;14.60;;;;;;;11.93;67.26;100731.28;1741379;81;25949;-82
2021/10/31 09:10:30;;;;;;;20.20;12.85;;;;;;;12.02;67.34;100730.11;1668427;82;28342;-82
2021/10/31 09:12:58;;;;;;;20.27;12.65;;;;;;;12.10;67.34;100733.48;1693784;80;25875;-81
2021/10/31 09:15:30;;;;;;;21.65;12.75;;;;;;;12.17;67.04;100726.33;1747529;80;25805;-81
2021/10/31 09:17:59;;;;;;;24.43;14.10;;;;;;;12.23;66.75;100727.42;1735852;80;26508;-81
2021/10/31 09:20:26;;;;;;;19.92;13.25;;;;;;;12.29;66.56;100726.14;1740212;80;25846;-82
2021/10/31 09:22:55;;;;;;;20.12;12.73;;;;;;;12.37;66.54;100732.70;1704638;80;27547;-82
2021/10/31 09:25:23;;;;;;;21.80;13.75;;;;;;;12.44;66.25;100737.29;1756483;79;25955;-82
2021/10/31 09:27:50;;;;;;;22.35;13.10;;;;;;;12.51;65.96;100735.49;1766573;80;25969;-81
2021/10/31 09:30:17;;;;;;;21.45;13.22;;;;;;;12.57;66.03;100732.02;1712502;80;25836;-81
2021/10/31 09:32:48;;;;;;;23.42;12.47;;;;;;;12.63;65.80;100725.34;1711094;81;25856;-81
2021/10/31 09:35:22;;;;;;;17.12;12.28;;;;;;;12.70;65.49;100720.82;1764072;80;32553;-82
2021/10/31 09:37:54;;;;;;;19.23;12.50;;;;;;;12.76;65.66;100723.25;1747873;80;25296;-81
2021/10/31 09:40:20;;;;;;;18.15;12.98;;;;;;;12.82;65.10;100727.32;1712425;80;25477;-81
2021/10/31 09:42:49;;;;;;;21.40;13.68;;;;;;;12.89;65.13;100721.98;1713408;81;25960;-81
2021/10/31 09:45:16;;;;;;;18.95;11.90;;;;;;;12.96;65.30;100717.45;1761891;80;25939;-83
2021/10/31 09:47:44;;;;;;;17.92;12.10;;;;;;;13.02;65.27;100722.05;1763042;80;27635;-83
2021/10/31 09:50:12;;;;;;;19.42;12.80;;;;;;;13.10;64.98;100720.06;1739205;80;25721;-83
2021/10/31 09:52:39;;;;;;;22.50;13.83;;;;;;;13.17;64.66;100707.98;1684512;81;25806;-82
2021/10/31 09:55:10;;;;;;;17.07;12.10;;;;;;;13.24;64.34;100710.70;1747019;81;25808;-85
2021/10/31 09:57:37;;;;;;;20.45;12.07;;;;;;;13.28;64.33;100711.42;1748296;80;25838;-82
2021/10/31 10:00:06;;;;;;;19.00;13.20;;;;;;;13.32;64.09;100704.63;1742623;80;27557;-83
2021/10/31 10:03:04;;;;;;;18.40;12.58;;;;;;;13.38;64.08;100709.20;1727152;82;26589;-82
2021/10/31 10:05:26;;;;;;;19.27;12.13;;;;;;;13.44;63.84;100703.52;1742739;81;26039;-83
2021/10/31 10:08:16;;;;;;;22.00;11.28;;;;;;;13.47;63.49;100704.47;1738386;81;25791;-82
2021/10/31 10:10:54;;;;;;;18.55;12.40;;;;;;;13.51;63.36;100704.38;1662547;83;25879;-83
2021/10/31 10:13:29;;;;;;;20.85;12.40;;;;;;;13.56;63.28;100707.27;1704288;81;28094;-83
2021/10/31 10:16:24;;;;;;;19.92;13.25;;;;;;;13.62;63.22;100706.47;1744028;80;25740;-84
2021/10/31 10:18:52;;;;;;;18.25;12.35;;;;;;;13.67;63.08;100698.59;1743205;81;25817;-84
2021/10/31 10:21:29;;;;;;;17.32;11.90;;;;;;;13.70;62.85;100698.20;1689708;82;26132;-83
2021/10/31 10:24:01;;;;;;;18.92;12.60;;;;;;;13.72;62.82;100703.70;1710872;81;25908;-83
2021/10/31 10:26:37;;;;;;;;;;;;;;;13.78;62.56;100704.73;1751900;81;27663;-84
2021/10/31 10:29:26;;;;;;;19.30;11.83;;;;;;;13.81;62.30;100706.48;1736609;81;25674;-84
2021/10/31 10:32:11;;;;;;;20.48;12.00;;;;;;;13.84;62.10;100693.13;1722590;81;25775;-83
2021/10/31 10:34:50;;;;;;;17.65;11.90;;;;;;;13.91;62.30;100700.20;1720887;81;25792;-82
2021/10/31 10:37:25;;;;;;;20.23;13.15;;;;;;;13.99;62.42;100695.11;1741666;80;26646;-82
2021/10/31 10:39:57;;;;;;;16.15;11.85;;;;;;;14.03;62.00;100697.70;1688237;81;27648;-82
2021/10/31 10:42:29;;;;;;;17.57;12.13;;;;;;;14.10;61.50;100692.32;1735872;81;25780;-83
2021/10/31 10:45:05;;;;;;;19.15;12.33;;;;;;;14.13;61.37;100694.61;1696466;81;25651;-83
2021/10/31 10:47:33;;;;;;;20.00;12.33;;;;;;;14.16;61.21;100696.88;1719605;81;25875;-82
2021/10/31 10:50:01;;;;;;;21.23;13.18;;;;;;;14.19;61.18;100691.92;1708108;81;25324;-83
2021/10/31 10:52:33;;;;;;;19.73;11.35;;;;;;;14.23;60.65;100681.03;1707136;81;28284;-84
2021/10/31 10:55:17;;;;;;;20.27;13.05;;;;;;;14.27;60.66;100682.78;1733269;81;25905;-83
2021/10/31 10:57:55;;;;;;;18.02;12.58;;;;;;;14.31;60.65;100682.70;1731228;81;25802;-82
2021/10/31 11:00:35;;;;;;;19.05;12.60;;;;;;;14.35;60.65;100673.99;1761366;81;25921;-83
2021/10/31 11:03:18;;;;;;;19.27;12.27;;;;;;;14.42;60.66;100673.98;1754697;80;25756;-82
2021/10/31 11:05:48;;;;;;;16.10;11.43;;;;;;;14.48;60.21;100669.09;1777173;80;27454;-83
2021/10/31 11:08:24;;;;;;;19.62;12.43;;;;;;;14.50;60.00;100666.51;1697805;80;25721;-83
2021/10/31 11:11:02;;;;;;;16.65;11.30;;;;;;;14.54;59.99;100663.70;1758973;80;25378;-82
2021/10/31 11:13:30;;;;;;;15.35;11.00;;;;;;;14.60;59.87;100664.73;1771786;78;25646;-83
2021/10/31 11:16:02;;;;;;;15.20;10.78;;;;;;;14.64;59.54;100660.58;1769273;80;25940;-82
2021/10/31 11:18:29;;;;;;;19.32;11.35;;;;;;;14.68;59.75;100653.20;1721882;81;27401;-82
2021/10/31 11:20:56;;;;;;;16.07;11.10;;;;;;;14.72;59.36;100649.55;1740198;80;25775;-82
2021/10/31 11:23:23;;;;;;;16.45;10.70;;;;;;;14.78;59.23;100646.55;1746630;80;26391;-83
2021/10/31 11:25:51;;;;;;;17.85;12.00;;;;;;;14.81;58.94;100651.50;1794705;78;26453;-84
2021/10/31 11:28:21;;;;;;;18.80;11.35;;;;;;;14.84;58.74;100643.80;1691554;80;25747;-83
2021/10/31 11:30:50;;;;;;;18.40;11.28;;;;;;;14.89;58.86;100639.12;1727602;81;28331;-83
2021/10/31 11:33:18;;;;;;;20.45;12.75;;;;;;;14.94;58.94;100633.92;1752894;80;25381;-83
2021/10/31 11:35:45;;;;;;;21.35;13.43;;;;;;;14.96;58.60;100631.32;1777869;80;26194;-82